Time;durP1;ratioP1;P1;durP2;ratioP2;P2;SDS_P1;SDS_P2;PMS_P1;PMS_P2;Temp;Humidity;BMP_temperature;BMP_pressure;BME280_temperature;BME280_humidity;BME280_pressure;Samples;Min_cycle;Max_cycle;Signal;HPM_P1;HPM_P2
2021/01/31 00:02:22;;;;;;;;;;;;;;;2.11;100.00;99142.82;1827002;78;20162;-53
2021/01/31 00:04:50;;;;;;;;;;;;;;;2.11;100.00;99144.14;1826990;78;21528;-52
2021/01/31 00:07:17;;;;;;;;;;;;;;;2.14;100.00;99150.66;1826909;77;20234;-52
2021/01/31 00:09:44;;;;;;;;;;;;;;;2.13;100.00;99160.36;1826992;78;20131;-52
2021/01/31 00:12:12;;;;;;;;;;;;;;;2.11;100.00;99157.36;1826911;78;20103;-52
2021/01/31 00:14:39;;;;;;;;;;;;;;;2.09;100.00;99152.53;1827007;78;20252;-52
2021/01/31 00:17:06;;;;;;;;;;;;;;;2.07;100.00;99158.32;1827067;78;21711;-52
2021/01/31 00:19:35;;;;;;;;;;;;;;;2.05;100.00;99157.49;1826844;78;20213;-52
2021/01/31 00:22:02;;;;;;;;;;;;;;;2.00;100.00;99160.27;1827027;78;20211;-52
2021/01/31 00:24:30;;;;;;;;;;;;;;;1.95;100.00;99169.64;1826938;78;20234;-52
2021/01/31 00:26:57;;;;;;;;;;;;;;;1.91;100.00;99173.27;1827033;78;20209;-52
2021/01/31 00:29:25;;;;;;;;;;;;;;;1.89;100.00;99179.05;1826933;78;21199;-52
2021/01/31 00:31:52;;;;;;;;;;;;;;;1.85;100.00;99197.18;1826958;78;20222;-52
2021/01/31 00:34:19;;;;;;;;;;;;;;;1.81;100.00;99192.87;1826907;78;20230;-52
2021/01/31 00:36:48;;;;;;;;;;;;;;;1.79;100.00;99196.02;1827015;77;20209;-52
2021/01/31 00:39:15;;;;;;;;;;;;;;;1.78;100.00;99191.64;1810018;79;20217;-52
2021/01/31 00:41:43;;;;;;;;;;;;;;;1.77;100.00;99196.50;1810013;79;21254;-52
2021/01/31 00:44:10;;;;;;;;;;;;;;;1.75;100.00;99189.92;1809974;79;20141;-52
2021/01/31 00:46:40;;;;;;;;;;;;;;;1.74;100.00;99189.51;1810020;79;20209;-52
2021/01/31 00:49:08;;;;;;;;;;;;;;;1.73;100.00;99195.70;1810084;79;20696;-52
2021/01/31 00:51:35;;;;;;;;;;;;;;;1.71;100.00;99196.19;1809999;79;20248;-52
2021/01/31 00:54:04;;;;;;;;;;;;;;;1.67;100.00;99200.70;1809920;79;21194;-52
2021/01/31 00:56:32;;;;;;;;;;;;;;;1.66;100.00;99192.80;1809884;79;20145;-52
2021/01/31 00:59:00;;;;;;;;;;;;;;;1.64;100.00;99188.86;1810071;79;20243;-52
2021/01/31 01:01:27;;;;;;;;;;;;;;;1.62;100.00;99189.34;1809953;79;20233;-52
2021/01/31 01:03:54;;;;;;;;;;;;;;;1.63;100.00;99196.36;1810057;79;20213;-52
2021/01/31 01:06:26;;;;;;;;;;;;;;;1.62;100.00;99195.09;1809305;79;21373;-52
2021/01/31 01:08:53;;;;;;;;;;;;;;;1.58;100.00;99190.33;1809960;79;20153;-52
2021/01/31 01:11:21;;;;;;;;;;;;;;;1.57;100.00;99193.87;1809987;79;20216;-51
2021/01/31 01:13:48;;;;;;;;;;;;;;;1.54;100.00;99189.99;1809977;79;20256;-52
2021/01/31 01:16:15;;;;;;;;;;;;;;;1.54;100.00;99196.59;1810079;79;20216;-51
2021/01/31 01:18:43;;;;;;;;;;;;;;;1.55;100.00;99203.61;1809986;79;21805;-52
2021/01/31 01:21:13;;;;;;;;;;;;;;;1.56;100.00;99210.63;1809970;79;20213;-51
2021/01/31 01:23:42;;;;;;;;;;;;;;;1.57;100.00;99201.80;1809951;79;20131;-51
2021/01/31 01:26:09;;;;;;;;;;;;;;;1.58;100.00;99211.46;1810040;79;20264;-51
2021/01/31 01:28:36;;;;;;;;;;;;;;;1.57;100.00;99207.97;1809927;79;20216;-52
2021/01/31 01:31:03;;;;;;;;;;;;;;;1.56;100.00;99213.27;1810060;79;21627;-52
2021/01/31 01:33:31;;;;;;;;;;;;;;;1.53;100.00;99215.98;1810063;79;20225;-52
2021/01/31 01:35:59;;;;;;;;;;;;;;;1.50;100.00;99218.70;1810193;79;20282;-52
2021/01/31 01:38:27;;;;;;;;;;;;;;;1.49;100.00;99222.25;1823682;78;20234;-52
2021/01/31 01:40:55;;;;;;;;;;;;;;;1.49;100.00;99231.02;1830310;77;20230;-52
2021/01/31 01:43:22;;;;;;;;;;;;;;;1.49;100.00;99223.57;1830282;78;21181;-52
2021/01/31 01:46:02;;;;;;;;;;;;;;;1.49;100.00;99227.06;1830196;77;20238;-52
2021/01/31 01:48:29;;;;;;;;;;;;;;;1.49;100.00;99236.78;1830307;78;20205;-52
2021/01/31 01:50:57;;;;;;;;;;;;;;;1.48;100.00;99237.21;1830271;78;20213;-52
2021/01/31 01:53:24;;;;;;;;;;;;;;;1.50;100.00;99233.23;1830223;77;20213;-52
2021/01/31 01:55:55;;;;;;;;;;;;;;;1.54;100.00;99234.89;1830220;78;21193;-51
2021/01/31 01:58:23;;;;;;;;;;;;;;;1.57;100.00;99242.75;1830289;78;20226;-52
2021/01/31 02:00:50;;;;;;;;;;;;;;;1.63;100.00;99241.28;1830278;78;20221;-52
2021/01/31 02:03:25;;;;;;;;;;;;;;;1.70;100.00;99242.90;1830234;78;20238;-53
2021/01/31 02:05:59;;;;;;;;;;;;;;;1.77;100.00;99253.31;1830466;78;20692;-52
2021/01/31 02:08:26;;;;;;;;;;;;;;;1.82;100.00;99252.75;1799965;78;21708;-52
2021/01/31 02:10:54;;;;;;;;;;;;;;;1.89;100.00;99259.66;1830252;78;20217;-52
2021/01/31 02:13:22;;;;;;;;;;;;;;;1.92;100.00;99260.91;1830198;78;20170;-51
2021/01/31 02:15:51;;;;;;;;;;;;;;;1.96;100.00;99264.32;1830302;78;20127;-52
2021/01/31 02:18:37;;;;;;;;;;;;;;;1.98;100.00;99271.32;1830210;78;20297;-51
2021/01/31 02:21:26;;;;;;;;;;;;;;;2.05;100.00;99271.17;1830287;78;21187;-52
2021/01/31 02:24:12;;;;;;;;;;;;;;;2.10;100.00;99271.92;1829982;78;20150;-51
2021/01/31 02:27:09;;;;;;;;;;;;;;;2.14;100.00;99276.26;1819140;78;20230;-52
2021/01/31 02:30:04;;;;;;;;;;;;;;;2.19;100.00;99284.94;1829979;78;20143;-51
2021/01/31 02:32:44;;;;;;;;;;;;;;;2.25;100.00;99314.34;1830226;78;20217;-52
2021/01/31 02:35:22;;;;;;;;;;;;;;;2.28;100.00;99321.73;1829941;78;21374;-51
2021/01/31 02:37:58;;;;;;;;;;;;;;;2.36;100.00;99337.89;1835580;77;20131;-52
2021/01/31 02:40:40;;;;;;;;;;;;;;;2.41;100.00;99357.16;1843149;78;20107;-50
2021/01/31 02:43:19;;;;;;;;;;;;;;;2.47;100.00;99364.94;1800149;78;20238;-51
2021/01/31 02:45:49;;;;;;;;;;;;;;;2.52;100.00;99389.50;1843214;78;20202;-52
2021/01/31 02:48:20;;;;;;;;;;;;;;;2.53;100.00;99384.63;1813615;78;21354;-51
2021/01/31 02:50:53;;;;;;;;;;;;;;;2.54;100.00;99383.75;1843084;78;20107;-52
2021/01/31 02:53:23;;;;;;;;;;;;;;;2.53;100.00;99395.20;1842989;78;20158;-51
2021/01/31 02:55:54;;;;;;;;;;;;;;;2.50;100.00;99400.58;1848180;77;20222;-51
2021/01/31 02:58:23;;;;;;;;;;;;;;;2.46;100.00;99416.58;1849179;77;20473;-51
2021/01/31 03:01:00;;;;;;;;;;;;;;;2.44;100.00;99432.47;1821567;77;21189;-51
2021/01/31 03:03:36;;;;;;;;;;;;;;;2.42;100.00;99456.77;1848983;77;20218;-51
2021/01/31 03:06:05;;;;;;;;;;;;;;;2.39;100.00;99453.73;1848524;77;20237;-51
2021/01/31 03:08:35;;;;;;;;;;;;;;;2.39;100.00;99468.75;1849099;77;20707;-52
2021/01/31 03:11:18;;;;;;;;;;;;;;;2.35;100.00;99489.09;1849109;77;20241;-51
2021/01/31 03:13:55;;;;;;;;;;;;;;;2.31;100.00;99483.89;1849175;77;21264;-51
2021/01/31 03:16:32;;;;;;;;;;;;;;;2.26;100.00;99491.95;1848982;77;20123;-51
2021/01/31 03:19:22;;;;;;;;;;;;;;;2.22;99.61;99504.35;1849198;77;20277;-51
2021/01/31 03:21:52;;;;;;;;;;;;;;;2.16;98.38;99500.52;1849082;77;21300;-51
2021/01/31 03:24:29;;;;;;;;;;;;;;;2.09;98.49;99510.34;1849163;77;20516;-51
2021/01/31 03:27:05;;;;;;;;;;;;;;;2.03;98.31;99515.77;1849053;77;21363;-51
2021/01/31 03:29:32;;;;;;;;;;;;;;;1.97;97.91;99527.33;1849114;77;20265;-50
2021/01/31 03:32:03;;;;;;;;;;;;;;;1.93;97.45;99545.47;1849013;77;20265;-51
2021/01/31 03:34:40;;;;;;;;;;;;;;;1.86;97.56;99542.06;1849089;77;20686;-52
2021/01/31 03:37:07;;;;;;;;;;;;;;;1.81;97.67;99547.89;1814262;77;20225;-52
2021/01/31 03:39:34;;;;;;;;;;;;;;;1.75;97.78;99549.30;1832779;78;22435;-51
2021/01/31 03:42:01;;;;;;;;;;;;;;;1.69;98.00;99550.74;1832800;78;20232;-52
2021/01/31 03:44:29;;;;;;;;;;;;;;;1.63;97.75;99554.83;1832763;78;20257;-51
2021/01/31 03:47:01;;;;;;;;;;;;;;;1.56;97.91;99560.66;1832844;78;20205;-51
2021/01/31 03:49:37;;;;;;;;;;;;;;;1.49;97.75;99586.30;1832866;78;20234;-52
2021/01/31 03:52:04;;;;;;;;;;;;;;;1.41;97.70;99578.49;1832813;78;21202;-51
2021/01/31 03:54:32;;;;;;;;;;;;;;;1.34;97.77;99586.10;1832712;78;20210;-52
2021/01/31 03:57:02;;;;;;;;;;;;;;;1.28;98.05;99582.25;1833123;78;20303;-51
2021/01/31 03:59:35;;;;;;;;;;;;;;;1.23;97.87;99589.37;1833146;77;20290;-51
2021/01/31 04:02:02;;;;;;;;;;;;;;;1.18;97.82;99593.83;1833084;78;20206;-50
2021/01/31 04:04:42;;;;;;;;;;;;;;;1.12;98.24;99598.31;1844372;77;21382;-51
2021/01/31 04:07:10;;;;;;;;;;;;;;;1.10;98.69;99604.50;1832962;78;20245;-52
2021/01/31 04:09:38;;;;;;;;;;;;;;;1.07;98.93;99590.91;1833084;78;20103;-51
2021/01/31 04:12:10;;;;;;;;;;;;;;;1.04;99.15;99597.56;1832958;78;20213;-51
2021/01/31 04:15:03;;;;;;;;;;;;;;;1.03;99.42;99598.46;1833105;78;20209;-51
2021/01/31 04:17:31;;;;;;;;;;;;;;;1.02;99.51;99597.14;1833153;78;21706;-51
2021/01/31 04:19:58;;;;;;;;;;;;;;;1.02;99.69;99598.47;1832979;78;20209;-52
2021/01/31 04:22:25;;;;;;;;;;;;;;;1.00;99.94;99607.28;1833138;78;20209;-52
2021/01/31 04:24:53;;;;;;;;;;;;;;;1.02;100.00;99619.15;1833061;78;20218;-51
2021/01/31 04:27:20;;;;;;;;;;;;;;;1.02;100.00;99636.31;1833112;78;20228;-51
2021/01/31 04:29:48;;;;;;;;;;;;;;;1.02;99.73;99641.59;1833026;78;21368;-52
2021/01/31 04:32:15;;;;;;;;;;;;;;;1.02;99.62;99637.63;1833096;77;20225;-52
2021/01/31 04:34:42;;;;;;;;;;;;;;;1.01;99.25;99639.84;1833014;78;20214;-52
2021/01/31 04:37:09;;;;;;;;;;;;;;;0.99;99.06;99649.52;1832995;78;20269;-51
2021/01/31 04:39:37;;;;;;;;;;;;;;;0.98;99.16;99664.93;1833082;77;20218;-51
2021/01/31 04:42:04;;;;;;;;;;;;;;;0.96;99.01;99687.84;1833128;78;21267;-51
2021/01/31 04:44:32;;;;;;;;;;;;;;;0.96;99.26;99687.84;1833074;78;20128;-51
2021/01/31 04:47:09;;;;;;;;;;;;;;;0.93;98.96;99694.48;1833070;77;20297;-51
2021/01/31 04:49:56;;;;;;;;;;;;;;;0.89;99.08;99714.78;1833089;78;20242;-51
2021/01/31 04:52:59;;;;;;;;;;;;;;;0.84;99.04;99722.73;1833008;78;20226;-51
2021/01/31 04:56:04;;;;;;;;;;;;;;;0.79;99.07;99727.63;1833014;77;21205;-51
2021/01/31 04:58:48;;;;;;;;;;;;;;;0.73;99.05;99731.20;1833046;78;20170;-52
2021/01/31 05:01:26;;;;;;;;;;;;;;;0.68;99.34;99745.79;1832988;77;20103;-52
2021/01/31 05:04:01;;;;;;;;;;;;;;;0.65;99.41;99746.25;1817153;78;20732;-51
2021/01/31 05:06:34;;;;;;;;;;;;;;;0.61;99.48;99770.46;1833217;78;20218;-51
2021/01/31 05:09:02;;;;;;;;;;;;;;;0.58;99.32;99774.45;1833300;78;21426;-51
2021/01/31 05:11:39;;;;;;;;;;;;;;;0.53;99.27;99773.17;1833143;78;20234;-51
2021/01/31 05:14:09;;;;;;;;;;;;;;;0.50;99.09;99777.62;1832917;77;20217;-52
2021/01/31 05:16:36;;;;;;;;;;;;;;;0.41;98.77;99785.17;1833273;77;20222;-51
2021/01/31 05:19:06;;;;;;;;;;;;;;;0.34;98.72;99788.76;1833328;78;20229;-52
2021/01/31 05:21:34;;;;;;;;;;;;;;;0.28;98.73;99794.48;1833327;78;21201;-52
2021/01/31 05:24:06;;;;;;;;;;;;;;;0.24;98.76;99799.36;1833096;77;20218;-52
2021/01/31 05:26:37;;;;;;;;;;;;;;;0.19;98.67;99803.80;1833337;77;20210;-52
2021/01/31 05:29:06;;;;;;;;;;;;;;;0.15;98.75;99796.81;1833142;78;20234;-52
2021/01/31 05:31:35;;;;;;;;;;;;;;;0.12;98.85;99800.78;1833377;78;20504;-52
2021/01/31 05:34:02;;;;;;;;;;;;;;;0.08;98.88;99795.97;1833218;78;21134;-52
2021/01/31 05:36:31;;;;;;;;;;;;;;;0.06;98.96;99804.77;1833131;78;20288;-52
2021/01/31 05:38:59;;;;;;;;;;;;;;;0.04;99.10;99815.34;1834779;78;20505;-52
2021/01/31 05:41:45;;;;;;;;;;;;;;;0.01;99.20;99826.33;1834989;78;20229;-52
2021/01/31 05:44:21;;;;;;;;;;;;;;;0.00;99.28;99829.42;1835047;77;20217;-52
2021/01/31 05:46:54;;;;;;;;;;;;;;;0.00;99.56;99826.79;1834994;78;21373;-53
2021/01/31 05:49:41;;;;;;;;;;;;;;;0.02;99.78;99834.67;1834990;77;20256;-52
2021/01/31 05:52:20;;;;;;;;;;;;;;;0.04;99.86;99848.70;1834898;77;20147;-52
2021/01/31 05:54:51;;;;;;;;;;;;;;;0.07;99.75;99859.23;1832154;77;20371;-52
2021/01/31 05:57:25;;;;;;;;;;;;;;;0.10;99.56;99867.11;1835138;77;20506;-51
2021/01/31 05:59:54;;;;;;;;;;;;;;;0.14;99.38;99865.77;1833621;77;20237;-51
2021/01/31 06:02:31;;;;;;;;;;;;;;;0.18;98.94;99877.19;1834959;78;20241;-51
2021/01/31 06:05:14;;;;;;;;;;;;;;;0.19;97.98;99877.61;1834923;77;20253;-51
2021/01/31 06:07:43;;;;;;;;;;;;;;;0.22;97.08;99882.86;1835018;77;20214;-52
2021/01/31 06:10:15;;;;;;;;;;;;;;;0.24;96.27;99883.73;1835083;77;20512;-52
2021/01/31 06:12:47;;;;;;;;;;;;;;;0.26;95.66;99883.27;1834876;78;21185;-52
2021/01/31 06:15:24;;;;;;;;;;;;;;;0.26;94.12;99895.14;1834925;78;20142;-52
2021/01/31 06:17:57;;;;;;;;;;;;;;;0.25;93.36;99899.98;1834639;77;20194;-52
2021/01/31 06:20:32;;;;;;;;;;;;;;;0.26;93.07;99923.28;1835020;78;20544;-52
2021/01/31 06:22:59;;;;;;;;;;;;;;;0.28;92.96;99917.09;1835011;78;20544;-52
2021/01/31 06:25:30;;;;;;;;;;;;;;;0.33;92.99;99922.77;1834961;78;21282;-52
2021/01/31 06:28:16;;;;;;;;;;;;;;;0.37;92.38;99928.03;1834821;78;20107;-52
2021/01/31 06:31:06;;;;;;;;;;;;;;;0.43;91.09;99949.53;1834977;78;20234;-52
2021/01/31 06:33:33;;;;;;;;;;;;;;;0.47;90.96;99953.05;1834809;78;20229;-51
2021/01/31 06:36:17;;;;;;;;;;;;;;;0.48;90.70;99945.10;1834943;78;20222;-51
2021/01/31 06:38:48;;;;;;;;;;;;;;;0.49;90.39;99952.12;1833593;78;21365;-52
2021/01/31 06:41:37;;;;;;;;;;;;;;;0.57;90.60;99959.99;1833075;78;20210;-52
2021/01/31 06:44:15;;;;;;;;;;;;;;;0.62;89.92;99959.97;1833177;78;20226;-52
2021/01/31 06:46:46;;;;;;;;;;;;;;;0.65;89.76;99971.82;1832995;77;20127;-52
2021/01/31 06:49:29;;;;;;;;;;;;;;;0.65;89.06;99975.78;1833181;78;20230;-52
2021/01/31 06:52:30;;;;;;;;;;;;;;;0.62;88.20;99981.94;1833237;77;21495;-51
2021/01/31 06:55:07;;;;;;;;;;;;;;;0.61;87.58;99977.55;1805939;77;21476;-52
2021/01/31 06:57:47;;;;;;;;;;;;;;;0.66;88.07;99986.34;1826960;78;20206;-52
2021/01/31 07:00:18;;;;;;;;;;;;;;;0.74;87.23;99986.72;1827099;78;20273;-52
2021/01/31 07:03:10;;;;;;;;;;;;;;;0.78;86.50;99980.09;1826985;77;20218;-52
2021/01/31 07:06:15;;;;;;;;;;;;;;;0.87;85.96;99995.42;1802490;78;22267;-53
2021/01/31 07:08:52;;;;;;;;;;;;;;;0.90;85.07;99991.01;1826961;78;20209;-51
2021/01/31 07:11:42;;;;;;;;;;;;;;;0.89;83.86;99998.92;1826726;78;20480;-52
2021/01/31 07:14:30;;;;;;;;;;;;;;;0.89;83.91;99998.92;1826952;78;20266;-53
2021/01/31 07:17:19;;;;;;;;;;;;;;;0.92;82.96;100013.41;1827023;78;20234;-52
2021/01/31 07:19:53;;;;;;;;;;;;;;;0.88;81.56;100022.24;1826648;78;21387;-52
2021/01/31 07:22:39;;;;;;;;;;;;;;;0.79;81.19;100029.34;1826878;78;20123;-52
2021/01/31 07:25:22;;;;;;;;;;;;;;;0.74;80.98;100028.48;1827081;78;20289;-52
2021/01/31 07:27:53;;;;;;;;;;;;;;;0.71;81.52;100039.05;1826989;78;20249;-52
2021/01/31 07:30:23;;;;;;;;;;;;;;;0.70;81.95;100048.75;1827121;78;20288;-53
2021/01/31 07:33:00;;;;;;;;;;;;;;;0.70;82.22;100057.09;1826959;78;21333;-53
2021/01/31 07:35:30;;;;;;;;;;;;;;;0.67;81.21;100046.55;1826903;78;20230;-53
2021/01/31 07:38:07;;;;;;;;;;;;;;;0.58;80.67;100058.49;1834647;78;20210;-52
2021/01/31 07:40:35;;;;;;;;;;;;;;;0.49;81.17;100060.27;1843066;78;20210;-53
2021/01/31 07:43:02;;;;;;;;;;;;;;;0.46;81.50;100064.25;1843157;78;20218;-52
2021/01/31 07:45:29;;;;;;;;;;;;;;;0.42;81.29;100062.05;1843065;78;21291;-53
2021/01/31 07:48:25;;;;;;;;;;;;;;;0.41;81.22;100073.48;1842774;77;20154;-52
2021/01/31 07:50:52;;;;;;;;;;;;;;;0.37;81.26;100072.21;1843095;78;20221;-51
2021/01/31 07:53:33;;;;;;;;;;;;;;;0.35;82.20;100070.02;1843035;78;20258;-52
2021/01/31 07:56:24;;;;;;;;;;;;;;;0.37;82.23;100074.39;1843069;77;20202;-52
2021/01/31 07:58:52;;;;;;;;;;;;;;;0.41;82.58;100075.27;1843060;78;21191;-52
2021/01/31 08:01:41;;;;;;;;;;;;;;;0.46;82.64;100077.89;1843023;78;20237;-52
2021/01/31 08:04:20;;;;;;;;;;;;;;;0.49;83.04;100069.50;1785787;78;20211;-52
2021/01/31 08:06:50;;;;;;;;;;;;;;;0.58;83.47;100075.18;1843039;78;20237;-51
2021/01/31 08:09:29;;;;;;;;;;;;;;;0.63;81.83;100083.08;1843136;77;20222;-52
2021/01/31 08:12:08;;;;;;;;;;;;;;;0.66;81.88;100085.27;1843065;77;21366;-52
2021/01/31 08:15:11;;;;;;;;;;;;;;;0.66;81.24;100085.70;1843029;78;20242;-52
2021/01/31 08:17:57;;;;;;;;;;;;;;;0.71;81.73;100086.55;1843083;78;20242;-51
2021/01/31 08:20:31;;;;;;;;;;;;;;;0.79;81.95;100099.28;1843047;77;20135;-53
2021/01/31 08:23:13;;;;;;;;;;;;;;;0.86;81.54;100092.18;1843170;78;20226;-52
2021/01/31 08:26:00;;;;;;;;;;;;;;;0.91;80.57;100093.48;1843034;78;21758;-52
2021/01/31 08:28:30;;;;;;;;;;;;;;;0.91;80.31;100086.88;1843079;78;20230;-52
2021/01/31 08:31:04;;;;;;;;;;;;;;;0.92;80.94;100081.61;1841897;78;20501;-52
2021/01/31 08:33:37;;;;;;;;;;;;;;;0.96;81.13;100092.58;1843083;77;20234;-52
2021/01/31 08:36:23;;;;;;;;;;;;;;;1.05;81.35;100099.99;1843075;78;20127;-52
2021/01/31 08:38:52;;;;;;;;;;;;;;;1.11;81.00;100110.08;1832329;78;21200;-52
2021/01/31 08:41:29;;;;;;;;;;;;;;;1.19;81.01;100110.47;1830220;78;20710;-52
2021/01/31 08:44:00;;;;;;;;;;;;;;;1.24;80.38;100112.66;1830137;78;20214;-52
2021/01/31 08:46:29;;;;;;;;;;;;;;;1.28;80.55;100113.06;1827040;78;20222;-51
2021/01/31 08:48:59;;;;;;;;;;;;;;;1.32;80.61;100110.82;1830088;77;20226;-52
2021/01/31 08:51:30;;;;;;;;;;;;;;;1.37;80.57;100118.72;1811458;78;39266;-52
2021/01/31 08:54:07;;;;;;;;;;;;;;;1.41;80.65;100115.17;1830211;78;20584;-51
2021/01/31 08:56:38;;;;;;;;;;;;;;;1.46;79.94;100120.42;1830018;77;20210;-51
2021/01/31 08:59:06;;;;;;;;;;;;;;;1.50;79.93;100120.36;1830234;78;20757;-51
2021/01/31 09:01:39;;;;;;;;;;;;;;;1.56;80.50;100118.13;1830095;78;20214;-52
2021/01/31 09:04:12;;;;;;;;;;;;;;;1.62;79.81;100124.67;1830212;77;22547;-52
2021/01/31 09:06:40;;;;;;;;;;;;;;;1.64;79.74;100132.61;1830128;78;20234;-52
2021/01/31 09:09:08;;;;;;;;;;;;;;;1.64;79.72;100132.14;1830167;77;20213;-51
2021/01/31 09:11:35;;;;;;;;;;;;;;;1.67;79.64;100134.79;1830092;78;20216;-51
2021/01/31 09:14:10;;;;;;;;;;;;;;;1.70;79.79;100136.08;1830130;77;20226;-51
2021/01/31 09:16:38;;;;;;;;;;;;;;;1.75;79.34;100136.02;1830180;78;21434;-52
2021/01/31 09:19:23;;;;;;;;;;;;;;;1.80;79.42;100142.59;1830087;78;20122;-52
2021/01/31 09:21:57;;;;;;;;;;;;;;;1.84;79.38;100141.67;1830207;78;20258;-52
2021/01/31 09:24:25;;;;;;;;;;;;;;;1.88;79.12;100143.86;1830093;78;20226;-52
2021/01/31 09:26:56;;;;;;;;;;;;;;;1.85;78.75;100147.39;1830396;78;20679;-52
2021/01/31 09:29:25;;;;;;;;;;;;;;;1.87;79.29;100148.25;1830096;78;21662;-52
2021/01/31 09:31:56;;;;;;;;;;;;;;;1.93;79.11;100153.51;1828885;78;20222;-53
2021/01/31 09:34:25;;;;;;;;;;;;;;;1.98;79.62;100155.66;1830085;78;20214;-53
2021/01/31 09:37:10;;;;;;;;;;;;;;;2.05;79.59;100158.23;1830370;77;20111;-53
2021/01/31 09:39:38;;;;;;;;;;;;;;;2.13;79.23;100153.30;1843140;77;20462;-52
2021/01/31 09:42:06;;;;;;;;;;;;;;;2.20;79.01;100154.12;1843091;78;21425;-52
2021/01/31 09:44:35;;;;;;;;;;;;;;;2.31;79.36;100163.70;1842965;78;20218;-52
2021/01/31 09:47:04;;;;;;;;;;;;;;;2.41;78.62;100152.15;1842951;77;20139;-52
2021/01/31 09:49:31;;;;;;;;;;;;;;;2.54;78.65;100153.78;1843068;78;20226;-53
2021/01/31 09:52:06;;;;;;;;;;;;;;;2.61;77.84;100157.67;1843066;77;20150;-53
2021/01/31 09:54:33;;;;;;;;;;;;;;;2.67;78.21;100167.74;1843238;77;21367;-52
2021/01/31 09:57:17;;;;;;;;;;;;;;;2.74;77.92;100159.25;1845930;77;20202;-52
2021/01/31 09:59:45;;;;;;;;;;;;;;;2.73;78.18;100160.16;1848768;77;20210;-53
2021/01/31 10:02:19;;;;;;;;;;;;;;;2.76;78.99;100168.05;1849180;77;20151;-53
2021/01/31 10:04:54;;;;;;;;;;;;;;;2.82;79.09;100173.30;1849195;77;20476;-54
2021/01/31 10:07:33;;;;;;;;;;;;;;;2.83;78.94;100163.13;1849091;77;21372;-53
2021/01/31 10:10:21;;;;;;;;;;;;;;;2.86;79.23;100170.14;1849012;77;20214;-53
2021/01/31 10:13:08;;;;;;;;;;;;;;;2.92;79.14;100187.73;1849114;77;20110;-53
2021/01/31 10:15:39;;;;;;;;;;;;;;;2.90;78.60;100189.09;1849174;77;20210;-53
2021/01/31 10:18:13;;;;;;;;;;;;;;;2.90;78.86;100201.00;1849212;77;20478;-53
2021/01/31 10:20:42;;;;;;;;;;;;;;;2.92;78.56;100215.53;1849076;77;21336;-53
2021/01/31 10:23:19;;;;;;;;;;;;;;;2.97;78.90;100233.56;1849067;77;20131;-53
2021/01/31 10:26:00;;;;;;;;;;;;;;;3.01;78.77;100236.16;1849200;77;20146;-54
2021/01/31 10:28:36;;;;;;;;;;;;;;;3.03;78.64;100236.16;1849016;77;20218;-52
2021/01/31 10:31:03;;;;;;;;;;;;;;;2.99;77.74;100237.09;1849134;77;20241;-52
2021/01/31 10:33:46;;;;;;;;;;;;;;;2.94;76.74;100245.09;1849014;77;21528;-54
2021/01/31 10:36:26;;;;;;;;;;;;;;;2.92;76.44;100252.61;1849032;77;20217;-53
2021/01/31 10:38:56;;;;;;;;;;;;;;;2.88;75.80;100252.22;1835487;77;20142;-52
2021/01/31 10:41:23;;;;;;;;;;;;;;;2.83;76.26;100263.74;1833087;78;20481;-52
2021/01/31 10:44:02;;;;;;;;;;;;;;;2.83;75.46;100265.06;1833190;77;20297;-53
2021/01/31 10:46:30;;;;;;;;;;;;;;;2.78;74.41;100262.92;1822868;77;21769;-53
2021/01/31 10:48:57;;;;;;;;;;;;;;;2.67;74.26;100246.26;1833201;78;20558;-52
2021/01/31 10:51:25;;;;;;;;;;;;;;;2.58;74.96;100252.52;1833082;77;20217;-52
2021/01/31 10:53:52;;;;;;;;;;;;;;;2.53;75.37;100257.85;1833185;78;20221;-52
2021/01/31 10:56:19;;;;;;;;;;;;;;;2.43;72.66;100261.06;1833148;77;20237;-53
2021/01/31 10:58:47;;;;;;;;;;;;;;;2.32;72.41;100263.34;1833448;78;21625;-52
2021/01/31 11:01:14;;;;;;;;;;;;;;;2.20;73.49;100254.64;1833421;78;20142;-52
2021/01/31 11:03:41;;;;;;;;;;;;;;;2.13;72.63;100258.23;1833393;78;20214;-53
2021/01/31 11:06:09;;;;;;;;;;;;;;;2.09;73.17;100268.38;1833461;78;20210;-53
2021/01/31 11:08:37;;;;;;;;;;;;;;;2.10;73.03;100268.81;1833477;78;20229;-53
2021/01/31 11:11:04;;;;;;;;;;;;;;;2.11;71.85;100275.89;1833452;78;21198;-52
2021/01/31 11:13:31;;;;;;;;;;;;;;;2.05;71.19;100273.27;1833305;78;20146;-53
2021/01/31 11:15:59;;;;;;;;;;;;;;;1.98;71.25;100265.38;1833502;78;20106;-53
2021/01/31 11:18:26;;;;;;;;;;;;;;;1.93;70.68;100266.30;1833322;78;20165;-53
2021/01/31 11:20:55;;;;;;;;;;;;;;;1.87;70.79;100267.22;1833505;78;20213;-53
2021/01/31 11:23:22;;;;;;;;;;;;;;;1.82;70.75;100282.23;1833339;78;21235;-53
2021/01/31 11:25:50;;;;;;;;;;;;;;;1.77;70.73;100299.90;1833399;78;20201;-53
2021/01/31 11:28:17;;;;;;;;;;;;;;;1.73;71.26;100284.95;1833402;78;20230;-53
2021/01/31 11:30:45;;;;;;;;;;;;;;;1.74;71.17;100286.70;1833388;78;20238;-53
2021/01/31 11:33:13;;;;;;;;;;;;;;;1.75;71.37;100292.42;1833456;78;20205;-53
2021/01/31 11:35:41;;;;;;;;;;;;;;;1.79;71.66;100300.77;1833556;78;22258;-53
2021/01/31 11:38:09;;;;;;;;;;;;;;;1.82;72.27;100307.34;1834912;78;20154;-53
2021/01/31 11:40:36;;;;;;;;;;;;;;;1.88;72.56;100306.02;1836011;78;20225;-53
2021/01/31 11:43:04;;;;;;;;;;;;;;;1.95;72.30;100297.14;1836079;78;20225;-53
2021/01/31 11:45:31;;;;;;;;;;;;;;;1.94;71.35;100303.32;1836033;78;20213;-53
2021/01/31 11:48:00;;;;;;;;;;;;;;;1.93;71.25;100294.06;1836050;78;21205;-53
2021/01/31 11:50:27;;;;;;;;;;;;;;;1.89;71.36;100299.84;1835974;78;20160;-53
2021/01/31 11:52:55;;;;;;;;;;;;;;;1.88;72.43;100313.94;1836012;78;20106;-53
2021/01/31 11:55:23;;;;;;;;;;;;;;;1.92;72.79;100306.42;1835960;78;20154;-53
2021/01/31 11:57:50;;;;;;;;;;;;;;;1.94;72.87;100313.89;1834268;77;20264;-53
2021/01/31 12:00:19;;;;;;;;;;;;;;;1.92;72.36;100307.74;1833181;78;21265;-53
2021/01/31 12:02:46;;;;;;;;;;;;;;;1.89;72.63;100304.23;1832989;78;20486;-53
2021/01/31 12:05:16;;;;;;;;;;;;;;;1.86;72.98;100306.01;1833165;78;20146;-54
2021/01/31 12:07:43;;;;;;;;;;;;;;;1.81;73.27;100306.91;1832952;78;20206;-53
2021/01/31 12:10:13;;;;;;;;;;;;;;;1.76;73.27;100308.25;1833173;77;20234;-53
2021/01/31 12:12:43;;;;;;;;;;;;;;;1.75;73.45;100325.46;1833055;77;20134;-53
2021/01/31 12:15:12;;;;;;;;;;;;;;;1.75;74.14;100321.50;1833043;78;20170;-53
2021/01/31 12:17:40;;;;;;;;;;;;;;;1.77;74.80;100327.65;1833131;78;20273;-53
2021/01/31 12:20:09;;;;;;;;;;;;;;;1.74;74.78;100316.64;1833260;78;20697;-54
2021/01/31 12:22:36;;;;;;;;;;;;;;;1.73;74.71;100328.56;1833178;78;20288;-53
2021/01/31 12:25:05;;;;;;;;;;;;;;;1.70;74.79;100329.02;1833093;78;21689;-52
2021/01/31 12:27:33;;;;;;;;;;;;;;;1.65;75.37;100321.98;1832972;77;20222;-53
2021/01/31 12:30:00;;;;;;;;;;;;;;;1.64;75.81;100329.02;1833013;77;20261;-53
2021/01/31 12:32:27;;;;;;;;;;;;;;;1.65;76.01;100321.98;1833121;78;20217;-53
2021/01/31 12:34:55;;;;;;;;;;;;;;;1.66;75.72;100323.31;1833025;77;20213;-53
2021/01/31 12:37:22;;;;;;;;;;;;;;;1.66;75.23;100314.06;1833467;78;21683;-53
2021/01/31 12:39:49;;;;;;;;;;;;;;;1.63;74.94;100296.88;1834789;77;20218;-53
2021/01/31 12:42:17;;;;;;;;;;;;;;;1.61;75.93;100306.58;1834843;77;20209;-53
2021/01/31 12:44:44;;;;;;;;;;;;;;;1.61;76.16;100297.33;1834791;78;20210;-54
2021/01/31 12:47:12;;;;;;;;;;;;;;;1.62;76.08;100300.87;1834887;77;20241;-54
2021/01/31 12:49:39;;;;;;;;;;;;;;;1.63;75.77;100311.41;1834739;78;21278;-53
2021/01/31 12:52:06;;;;;;;;;;;;;;;1.62;75.54;100305.69;1834851;77;20210;-53
2021/01/31 12:54:34;;;;;;;;;;;;;;;1.61;74.84;100302.61;1834707;78;20214;-53
2021/01/31 12:57:01;;;;;;;;;;;;;;;1.62;74.70;100304.83;1835512;77;20222;-53
2021/01/31 12:59:28;;;;;;;;;;;;;;;1.57;73.58;100300.88;1843207;78;20229;-53
2021/01/31 13:01:59;;;;;;;;;;;;;;;1.53;73.83;100303.11;1842982;77;21349;-53
2021/01/31 13:04:26;;;;;;;;;;;;;;;1.51;73.73;100299.59;1842947;78;20230;-53
2021/01/31 13:06:54;;;;;;;;;;;;;;;1.48;73.63;100323.39;1843001;77;20222;-53
2021/01/31 13:09:21;;;;;;;;;;;;;;;1.48;74.31;100329.55;1843020;78;20218;-53
2021/01/31 13:11:49;;;;;;;;;;;;;;;1.47;74.21;100342.32;1843040;78;20219;-53
2021/01/31 13:14:17;;;;;;;;;;;;;;;1.45;74.45;100337.48;1843036;78;21188;-54
2021/01/31 13:16:44;;;;;;;;;;;;;;;1.44;74.47;100341.02;1842931;77;20256;-53
2021/01/31 13:19:11;;;;;;;;;;;;;;;1.40;74.32;100328.25;1843046;78;20213;-53